Map

Track Data

SID SEASON NUMBER BASIN SUBBASIN NAME ISO_TIME NATURE LAT LON WMO_WIND WMO_PRES WMO_AGENCY TRACK_TYPE DIST2LAND LANDFALL IFLAG USA_AGENCY USA_ATCF_ID USA_LAT USA_LON USA_RECORD USA_STATUS USA_WIND USA_PRES USA_SSHS USA_R34_NE USA_R34_SE USA_R34_SW USA_R34_NW USA_R50_NE USA_R50_SE USA_R50_SW USA_R50_NW USA_R64_NE USA_R64_SE USA_R64_SW USA_R64_NW USA_POCI USA_ROCI USA_RMW USA_EYE TOKYO_LAT TOKYO_LON TOKYO_GRADE TOKYO_WIND TOKYO_PRES TOKYO_R50_DIR TOKYO_R50_LONG TOKYO_R50_SHORT TOKYO_R30_DIR TOKYO_R30_LONG TOKYO_R30_SHORT TOKYO_LAND CMA_LAT CMA_LON CMA_CAT CMA_WIND CMA_PRES HKO_LAT HKO_LON HKO_CAT HKO_WIND HKO_PRES NEWDELHI_LAT NEWDELHI_LON NEWDELHI_GRADE NEWDELHI_WIND NEWDELHI_PRES NEWDELHI_CI NEWDELHI_DP NEWDELHI_POCI REUNION_LAT REUNION_LON REUNION_TYPE REUNION_WIND REUNION_PRES REUNION_TNUM REUNION_CI REUNION_RMW REUNION_R34_NE REUNION_R34_SE REUNION_R34_SW REUNION_R34_NW REUNION_R50_NE REUNION_R50_SE REUNION_R50_SW REUNION_R50_NW REUNION_R64_NE REUNION_R64_SE REUNION_R64_SW REUNION_R64_NW BOM_LAT BOM_LON BOM_TYPE BOM_WIND BOM_PRES BOM_TNUM BOM_CI BOM_RMW BOM_R34_NE BOM_R34_SE BOM_R34_SW BOM_R34_NW BOM_R50_NE BOM_R50_SE BOM_R50_SW BOM_R50_NW BOM_R64_NE BOM_R64_SE BOM_R64_SW BOM_R64_NW BOM_ROCI BOM_POCI BOM_EYE BOM_POS_METHOD BOM_PRES_METHOD NADI_LAT NADI_LON NADI_CAT NADI_WIND NADI_PRES WELLINGTON_LAT WELLINGTON_LON WELLINGTON_WIND WELLINGTON_PRES DS824_LAT DS824_LON DS824_STAGE DS824_WIND DS824_PRES TD9636_LAT TD9636_LON TD9636_STAGE TD9636_WIND TD9636_PRES TD9635_LAT TD9635_LON TD9635_WIND TD9635_PRES TD9635_ROCI NEUMANN_LAT NEUMANN_LON NEUMANN_CLASS NEUMANN_WIND NEUMANN_PRES MLC_LAT MLC_LON MLC_CLASS MLC_WIND MLC_PRES USA_GUST BOM_GUST BOM_GUST_PER REUNION_GUST REUNION_GUST_PER USA_SEAHGT USA_SEARAD_NE USA_SEARAD_SE USA_SEARAD_SW USA_SEARAD_NW STORM_SPEED STORM_DIR
1965041S10076 1965 16 SI MM KATHLEEN 1965-02-10 06:00:00 TS -9.90000 75.9000 main 1845 1845 O________OO___ jtwc_sh SH231965 -9.90000 75.9000 -1 -9.90000 75.9000 TC 25 -9.90000 75.9000 7 8 234
1965041S10076 1965 16 SI MM KATHLEEN 1965-02-10 09:00:00 TS -10.1487 75.5568 main 1876 1876 P________PP___ SH231965 -10.1426 75.5476 -1 -10.1426 75.5476 TC 25 -10.1610 75.5751 7 8 233
1965041S10076 1965 16 SI MM KATHLEEN 1965-02-10 12:00:00 TS -10.4092 75.2133 main 1921 1921 O________OP___ jtwc_sh SH231965 -10.4000 75.2000 -1 -10.4000 75.2000 TC 25 -10.4275 75.2399 7 9 231
1965041S10076 1965 16 SI MM KATHLEEN 1965-02-10 15:00:00 TS -10.6917 74.8665 main 1964 1964 P________PP___ SH231965 -10.6849 74.8574 -1 -10.6849 74.8574 TC 25 -10.7053 74.8849 7 9 230
1965041S10076 1965 16 SI MM KATHLEEN 1965-02-10 18:00:00 TS -11.0000 74.5000 main 2010 2010 O________OO___ jtwc_sh SH231965 -11.0000 74.5000 -1 -11.0000 74.5000 TC 25 -11.0000 74.5000 1 10 229
1965041S10076 1965 16 SI MM KATHLEEN 1965-02-10 21:00:00 TS -11.3428 74.0991 main 2011 1950 P________PP___ SH231965 -11.3575 74.1075 -1 -11.3575 74.1075 TC 25 -11.3133 74.0822 1 11 230
1965041S10076 1965 16 SI MM KATHLEEN 1965-02-11 00:00:00 TS -11.6768 73.6852 main 1950 1901 O________OP___ jtwc_sh SH231965 -11.7000 73.7000 -1 -11.7000 73.7000 TC 25 -11.6303 73.6555 1 10 233
1965041S10076 1965 16 SI MM KATHLEEN 1965-02-11 03:00:00 TS -11.9641 73.2636 main 1896 1847 P________PP___ SH231965 -11.9800 73.2700 -1 -11.9800 73.2700 TC 25 -11.9321 73.2510 1 9 236
1965041S10076 1965 16 SI MM KATHLEEN 1965-02-11 06:00:00 TS -12.2000 72.9000 main 1847 1817 O________OO___ jtwc_sh SH231965 -12.2000 72.9000 -1 -12.2000 72.9000 TC 25 -12.2000 72.9000 1 7 235
1965041S10076 1965 16 SI MM KATHLEEN 1965-02-11 09:00:00 TS -12.3751 72.6619 main 1817 1792 P________PP___ SH231965 -12.3574 72.6699 -1 -12.3574 72.6699 TC 25 -12.4106 72.6461 1 5 231
1965041S10076 1965 16 SI MM KATHLEEN 1965-02-11 12:00:00 TS -12.5290 72.4823 main 1792 1762 O________OP___ jtwc_sh SH231965 -12.5000 72.5000 -1 -12.5000 72.5000 TC 25 -12.5870 72.4469 1 5 226
1965041S10076 1965 16 SI MM KATHLEEN 1965-02-11 15:00:00 TS -12.7150 72.2964 main 1762 1732 P________PP___ SH231965 -12.7000 72.3075 -1 -12.7000 72.3075 TC 25 -12.7450 72.2743 1 5 225
1965041S10076 1965 16 SI MM KATHLEEN 1965-02-11 18:00:00 TS -12.9000 72.1000 main 1732 1708 O________OO___ jtwc_sh SH231965 -12.9000 72.1000 -1 -12.9000 72.1000 TC 25 -12.9000 72.1000 1 5 231
1965041S10076 1965 16 SI MM KATHLEEN 1965-02-11 21:00:00 TS -13.0570 71.8593 main 1702 1669 P________PP___ SH231965 -13.0500 71.8500 -1 -13.0500 71.8500 TC 25 -13.0709 71.8780 1 6 236
1965041S10076 1965 16 SI MM KATHLEEN 1965-02-12 00:00:00 TS -13.2142 71.6166 main 1669 1639 O________OP___ jtwc_sh SH231965 -13.2000 71.6000 -1 -13.2000 71.6000 TC 25 -13.2425 71.6499 1 6 232
1965041S10076 1965 16 SI MM KATHLEEN 1965-02-12 03:00:00 TS -13.4009 71.4022 main 1639 1624 P________PP___ SH231965 -13.3925 71.3925 -1 -13.3925 71.3925 TC 30 -13.4178 71.4218 1 4 222
1965041S10076 1965 16 SI MM KATHLEEN 1965-02-12 06:00:00 TS -13.5286 71.3286 reunion main 1624 1604 O____O___OO_O_ jtwc_sh SH231965 -13.6000 71.2000 -1 -13.1000 72.1000 3 9.90000 -13.6000 71.2000 TC 35 -13.6000 71.2000 2 -13.1000 72.1000 TC 35 3 210
1965041S10076 1965 16 SI MM KATHLEEN 1965-02-12 09:00:00 TS -13.6808 71.2326 main 1604 1589 P____P___PP_P_ SH231965 -13.8000 71.0000 -1 -13.3225 71.9376 3 -13.8000 71.0000 TC 35 -13.8009 70.9928 2 -13.3225 71.9376 TC 35 4 212
1965041S10076 1965 16 SI MM KATHLEEN 1965-02-12 12:00:00 TS -13.8350 71.1317 reunion main 1589 1568 O____O___OP_O_ jtwc_sh SH231965 -14.0000 70.8000 -1 -13.5000 71.8000 99 9.90000 -14.0000 70.8000 TC 35 -14.0074 70.7924 2 -13.5000 71.8000 TC 35 3 214
1965041S10076 1965 16 SI MM KATHLEEN 1965-02-12 15:00:00 TS -13.9680 71.0391 main 1568 1554 P____P___PP_P_ SH231965 -14.2075 70.6000 -1 -13.6075 71.6999 99 -14.2075 70.6000 TC 35 -14.2102 70.5959 2 -13.6075 71.6999 TC 37 4 221
1965041S10076 1965 16 SI MM KATHLEEN 1965-02-12 18:00:00 TS -14.1200 70.8800 reunion main 1554 1524 O____O___OO_O_ jtwc_sh SH231965 -14.4000 70.4000 -1 -13.7000 71.6000 99 9.90000 -14.4000 70.4000 TC 35 -14.4000 70.4000 2 -13.7000 71.6000 TC 40 4 227
1965041S10076 1965 16 SI MM KATHLEEN 1965-02-12 21:00:00 TS -14.2666 70.7062 main 1524 1500 P____P___PP_P_ SH231965 -14.5575 70.2000 -1 -13.8350 71.4575 99 -14.5575 70.2000 TC 35 -14.5480 70.2159 2 -13.8350 71.4575 TC 40 5 229
1965041S10076 1965 16 SI MM KATHLEEN 1965-02-13 00:00:00 TS -14.4169 70.5259 reunion main 1500 1480 O____O___OP_O_ jtwc_sh SH231965 -14.7000 70.0000 -1 -14.0000 71.3000 99 9.90000 -14.7000 70.0000 TC 35 -14.6848 70.0294 2 -14.0000 71.3000 TC 40 5 227
1965041S10076 1965 16 SI MM KATHLEEN 1965-02-13 03:00:00 TS -14.5738 70.3606 main 1480 1456 P____P___PP_P_ SH231965 -14.8349 69.8149 -1 -14.1849 71.1724 99 -14.8349 69.8149 TC 35 -14.8292 69.8283 2 -14.1849 71.1724 TC 42 5 226
1965041S10076 1965 16 SI MM KATHLEEN 1965-02-13 06:00:00 TS -14.7600 70.1600 reunion main 1450 1412 O____O___OO_O_ jtwc_sh SH231965 -15.0000 69.6000 -1 -14.4000 71.0000 3 9.90000 -15.0000 69.6000 TC 35 -15.0000 69.6000 2 -14.4000 71.0000 TC 45 6 228
1965041S10076 1965 16 SI MM KATHLEEN 1965-02-13 09:00:00 TS -14.9983 69.8740 main 1412 1373 P____P___PP_P_ SH231965 -15.2350 69.3150 -1 -14.6501 70.7076 3 -15.2350 69.3150 TC 35 -15.2213 69.3248 2 -14.6501 70.7076 TC 45 8 229
1965041S10076 1965 16 SI MM KATHLEEN 1965-02-13 12:00:00 TS -15.2540 69.5645 reunion main 1368 1329 O____O___OP_O_ jtwc_sh SH231965 -15.5000 69.0000 -1 -14.9000 70.4000 99 9.90000 -15.5000 69.0000 TC 35 -15.4701 69.0226 2 -14.9000 70.4000 TC 45 7 229
1965041S10076 1965 16 SI MM KATHLEEN 1965-02-13 15:00:00 TS -15.4807 69.2987 main 1329 1300 P____P___PP_P_ SH231965 -15.7500 68.6925 -1 -15.0849 70.1998 99 -15.7500 68.6925 TC 35 -15.7338 68.7091 2 -15.0849 70.1998 TC 45 7 227
1965041S10076 1965 16 SI MM KATHLEEN 1965-02-13 18:00:00 TS -15.7200 69.0400 reunion main 1291 1257 O____O___OO_O_ jtwc_sh SH231965 -16.0000 68.4000 -1 -15.3000 70.0000 99 9.90000 -16.0000 68.4000 TC 35 -16.0000 68.4000 2 -15.3000 70.0000 TC 45 7 224
1965041S10076 1965 16 SI MM KATHLEEN 1965-02-13 21:00:00 TS -16.0001 68.7733 main 1257 1214 P____P___PP_P_ SH231965 -16.2499 68.1499 -1 -15.6275 69.7225 99 -16.2499 68.1499 TC 35 -16.2457 68.1215 2 -15.6275 69.7225 TC 45 8 222
1965041S10076 1965 16 SI MM KATHLEEN 1965-02-14 00:00:00 TS -16.2984 68.4899 reunion main 1214 1172 O____O___OP_O_ jtwc_sh SH231965 -16.5000 67.9000 -1 -16.0000 69.4000 99 9.90000 -16.5000 67.9000 TC 35 -16.4922 67.8495 2 -16.0000 69.4000 TC 45 8 224
1965041S10076 1965 16 SI MM KATHLEEN 1965-02-14 03:00:00 TS -16.5945 68.1815 main 1172 1130 P____P___PP_P_ SH231965 -16.7500 67.6075 -1 -16.3650 69.0575 99 -16.7500 67.6075 TC 50 -16.7426 67.5778 2 -16.3650 69.0575 TC 45 8 226
1965041S10076 1965 16 SI MM KATHLEEN 1965-02-14 06:00:00 TS -16.8800 67.8600 reunion main 1130 1092 O____O___OO_O_ jtwc_sh SH231965 -17.0000 67.3000 -1 -16.7000 68.7000 3 9.90000 -17.0000 67.3000 TC 65 -17.0000 67.3000 4 -16.7000 68.7000 TC 45 8 229
1965041S10076 1965 16 SI MM KATHLEEN 1965-02-14 09:00:00 TS -17.1289 67.5388 main 1082 1040 P____P___PP_P_ SH231965 -17.2425 66.9999 -1 -16.9499 68.3497 3 -17.2425 66.9999 TC 65 -17.2597 66.9949 4 -16.9499 68.3497 TC 47 8 231
1965041S10076 1965 16 SI MM KATHLEEN 1965-02-14 12:00:00 TS -17.3855 67.2170 reunion main 1040 999 O____O___OP_O_ jtwc_sh SH231965 -17.5000 66.7000 -1 -17.2000 68.0000 99 9.90000 -17.5000 66.7000 TC 65 -17.5276 66.6849 4 -17.2000 68.0000 TC 50 8 227
1965041S10076 1965 16 SI MM KATHLEEN 1965-02-14 15:00:00 TS -17.6953 66.8935 main 999 959 P____P___PP_P_ SH231965 -17.7925 66.3925 -1 -17.5424 67.6500 99 -17.7925 66.3925 TC 65 -17.8066 66.3824 4 -17.5424 67.6500 TC 50 9 224
1965041S10076 1965 16 SI MM KATHLEEN 1965-02-14 18:00:00 TS -18.0200 66.5800 reunion main 959 919 O____O___OO_O_ jtwc_sh SH231965 -18.1000 66.1000 -1 -17.9000 67.3000 99 9.90000 -18.1000 66.1000 TC 65 -18.1000 66.1000 4 -17.9000 67.3000 TC 50 8 223
1965041S10076 1965 16 SI MM KATHLEEN 1965-02-14 21:00:00 TS -18.3149 66.2898 main 919 880 P____P___PP_P_ SH231965 -18.3925 65.8349 -1 -18.1999 66.9572 99 -18.3925 65.8349 TC 50 -18.3900 65.8649 4 -18.1999 66.9572 TC 50 8 222
1965041S10076 1965 16 SI MM KATHLEEN 1965-02-15 00:00:00 TS -18.6194 66.0098 reunion main 880 852 O____O___OP_O_ jtwc_sh SH231965 -18.7000 65.6000 -1 -18.5000 66.6000 99 9.90000 -18.7000 65.6000 TC 35 -18.6971 65.6489 4 -18.5000 66.6000 TC 50 8 220
1965041S10076 1965 16 SI MM KATHLEEN 1965-02-15 03:00:00 TS -18.9450 65.7355 main 842 813 P____P___PP_P_ SH231965 -19.0274 65.3998 -1 -18.8199 66.2221 99 -19.0274 65.3998 TC 35 -19.0306 65.4335 4 -18.8199 66.2221 TC 47 9 218
1965041S10076 1965 16 SI MM KATHLEEN 1965-02-15 06:00:00 TS -19.3200 65.4400 reunion main 802 764 O____O___OO_O_ jtwc_sh SH231965 -19.4000 65.2000 -1 -19.2000 65.8000 3 9.90000 -19.4000 65.2000 TC 35 -19.4000 65.2000 2 -19.2000 65.8000 TC 45 10 215
1965041S10076 1965 16 SI MM KATHLEEN 1965-02-15 09:00:00 TS -19.7802 65.1058 main 764 730 P____P___PP_P_ SH231965 -19.8349 64.9723 -1 -19.6925 65.3151 3 -19.8349 64.9723 TC 35 -19.8461 64.9540 2 -19.6925 65.3151 TC 45 12 215
1965041S10076 1965 16 SI MM KATHLEEN 1965-02-15 12:00:00 TS -20.2643 64.7365 reunion main 719 688 O____O___OP_O_ jtwc_sh SH231965 -20.3000 64.7000 -1 -20.2000 64.8000 99 9.90000 -20.3000 64.7000 TC 35 -20.3217 64.6825 2 -20.2000 64.8000 TC 45 12 217
1965041S10076 1965 16 SI MM KATHLEEN 1965-02-15 15:00:00 TS -20.7152 64.3488 main 678 640 P____P___PP_P_ SH231965 -20.7799 64.3875 -1 -20.6149 64.2996 99 -20.7799 64.3875 TC 35 -20.7865 64.3696 2 -20.6149 64.2996 TC 42 12 222
1965041S10076 1965 16 SI MM KATHLEEN 1965-02-15 18:00:00 TS -21.1200 63.9200 reunion main 640 604 O____O___OO_O_ jtwc_sh SH231965 -21.2000 64.0000 -1 -21.0000 63.8000 99 9.90000 -21.2000 64.0000 TC 35 -21.2000 64.0000 2 -21.0000 63.8000 TC 40 11 229
1965041S10076 1965 16 SI MM KATHLEEN 1965-02-15 21:00:00 TS -21.4516 63.4480 main 596 561 P____P___PP_P_ SH231965 -21.4800 63.5222 -1 -21.4070 63.3296 99 -21.4800 63.5222 TC 35 -21.4838 63.5363 2 -21.4070 63.3296 TC 37 11 236
1965041S10076 1965 16 SI MM KATHLEEN 1965-02-16 00:00:00 TS -21.7432 62.9242 reunion main 551 513 O____O___OP_O_ jtwc_sh SH231965 -21.7000 63.0000 -1 -21.8000 62.8000 99 9.90000 -21.7000 63.0000 TC 35 -21.7159 63.0211 2 -21.8000 62.8000 TC 35 12 241
1965041S10076 1965 16 SI MM KATHLEEN 1965-02-16 03:00:00 TS -22.0281 62.3331 main 503 469 P____P___PP_P_ SH231965 -21.9275 62.4847 -1 -22.1729 62.1002 99 -21.9275 62.4847 TC 35 -21.9400 62.4955 2 -22.1729 62.1002 TC 35 12 242
1965041S10076 1965 16 SI MM KATHLEEN 1965-02-16 06:00:00 TS -22.3200 61.7600 reunion main 469 440 O____O___OO_O_ jtwc_sh SH231965 -22.2000 62.0000 -1 -22.5000 61.4000 3 9.90000 -22.2000 62.0000 TC 35 -22.2000 62.0000 2 -22.5000 61.4000 TC 35 12 238
1965041S10076 1965 16 SI MM KATHLEEN 1965-02-16 09:00:00 TS -22.6457 61.2796 main 440 425 P____P___PP_P_ SH231965 -22.5773 61.5774 -1 -22.7647 60.8471 3 -22.5773 61.5774 TC 35 -22.5445 61.5488 2 -22.7647 60.8471 TC 35 11 231
1965041S10076 1965 16 SI MM KATHLEEN 1965-02-16 12:00:00 TS -22.9865 60.8676 reunion main 432 424 O____O___OP_O_ jtwc_sh SH231965 -23.0000 61.2000 -1 -23.0000 60.4000 99 9.90000 -23.0000 61.2000 TC 35 -22.9324 61.1381 2 -23.0000 60.4000 TC 35 10 227
1965041S10076 1965 16 SI MM KATHLEEN 1965-02-16 15:00:00 TS -23.3217 60.4955 main 425 425 P____P___PP_P_ SH231965 -23.3850 60.8124 -1 -23.2422 60.0346 99 -23.3850 60.8124 TC 35 -23.3541 60.7833 2 -23.2422 60.0346 TC 35 9 222
1965041S10076 1965 16 SI MM KATHLEEN 1965-02-16 18:00:00 TS -23.6800 60.1800 reunion main 440 434 O____O___OO_O_ jtwc_sh SH231965 -23.8000 60.5000 -1 -23.5000 59.7000 99 9.90000 -23.8000 60.5000 TC 35 -23.8000 60.5000 2 -23.5000 59.7000 TC 35 9 215
1965041S10076 1965 16 SI MM KATHLEEN 1965-02-16 21:00:00 TS -24.0864 59.9092 main 461 461 P____P___PP_P_ SH231965 -24.2924 60.3123 -1 -23.7850 59.2999 99 -24.2924 60.3123 TC 35 -24.2771 60.3219 2 -23.7850 59.2999 TC 35 10 209
1965041S10076 1965 16 SI MM KATHLEEN 1965-02-17 00:00:00 TS -24.5143 59.6821 reunion main 492 492 O____O___OP_O_ jtwc_sh SH231965 -24.8000 60.2000 -1 -24.1000 58.9000 99 9.90000 -24.8000 60.2000 TC 35 -24.7716 60.2104 2 -24.1000 58.9000 TC 35 10 205
1965041S10076 1965 16 SI MM KATHLEEN 1965-02-17 03:00:00 TS -24.9490 59.4747 main 525 525 P____P___PP_P_ SH231965 -25.2799 60.1073 -1 -24.4650 58.5201 99 -25.2799 60.1073 TC 50 -25.2553 60.1189 2 -24.4650 58.5201 TC 32 9 204
1965041S10076 1965 16 SI MM KATHLEEN 1965-02-17 06:00:00 MX -25.3400 59.2800 reunion main 560 560 O____O___OO_O_ jtwc_sh SH231965 -25.7000 60.0000 -1 -24.8000 58.2000 5 9.90000 -25.7000 60.0000 TC 65 -25.7000 60.0000 4 -24.8000 58.2000 EX 30 8 207
1965041S10076 1965 16 SI MM KATHLEEN 1965-02-17 09:00:00 MX -25.6134 59.0938 main 586 586 P____P___PP_P_ SH231965 -26.0149 59.8298 -1 -24.9848 57.9918 5 -26.0149 59.8298 TC 50 -26.0676 59.8256 4 -24.9848 57.9918 EX 30 6 214
1965041S10076 1965 16 SI MM KATHLEEN 1965-02-17 12:00:00 MX -25.8788 58.8822 reunion main 603 597 O____O___OP_O_ jtwc_sh SH231965 -26.3000 59.6000 -1 -25.2000 57.8000 99 9.90000 -26.3000 59.6000 TC 35 -26.3940 59.6109 4 -25.2000 57.8000 EX 30 8 215
1965041S10076 1965 16 SI MM KATHLEEN 1965-02-17 15:00:00 MX -26.2447 58.6032 main 617 617 P____P___PP_P_ SH231965 -26.6499 59.3374 -1 -25.6126 57.5003 99 -26.6499 59.3374 TC 30 -26.6985 59.3408 4 -25.6126 57.5003 EX 30 9 215
1965041S10076 1965 16 SI MM KATHLEEN 1965-02-17 18:00:00 MX -26.6400 58.2800 reunion main 642 642 O____O___OO_O_ jtwc_sh SH231965 -27.0000 59.0000 -1 -26.1000 57.2000 99 9.90000 -27.0000 59.0000 TC 25 -27.0000 59.0000 7 -26.1000 57.2000 EX 30 10 218
1965041S10076 1965 16 SI MM KATHLEEN 1965-02-17 21:00:00 MX -26.9995 57.9504 main 671 667 P____P___PP_P_ SH231965 -27.2999 58.5871 -1 -26.5423 56.9994 99 -27.2999 58.5871 TC 25 -27.3133 58.5786 7 -26.5423 56.9994 EX 30 10 226
1965041S10076 1965 16 SI MM KATHLEEN 1965-02-18 00:00:00 MX -27.3243 57.4867 reunion main 686 686 O____O___OP_O_ jtwc_sh SH231965 -27.6000 58.1000 -1 -27.0000 56.8000 99 9.90000 -27.6000 58.1000 TC 25 -27.6374 58.0911 7 -27.0000 56.8000 EX 30 11 232
1965041S10076 1965 16 SI MM KATHLEEN 1965-02-18 03:00:00 MX -27.7092 56.9382 main 716 716 P____P___PP_P_ SH231965 -27.9380 57.5634 -1 -27.5302 56.4707 99 -27.9380 57.5634 TC 25 -27.9678 57.5578 7 -27.5302 56.4707 EX 30 12 231
1965041S10076 1965 16 SI MM KATHLEEN 1965-02-18 06:00:00 MX -28.0818 56.4182 reunion main 752 751 O____O___OO_O_ jtwc_sh SH231965 -28.3000 57.0000 -1 -28.0000 56.2000 5 9.90000 -28.3000 57.0000 TC 25 -28.3000 57.0000 7 -28.0000 56.2000 EX 30 9 232
1965041S10076 1965 16 SI MM KATHLEEN 1965-02-18 09:00:00 ET -28.2499 56.1619 main 762 762 _____P______P_ SH231965 -1 -28.2499 56.1619 5 TC 7 -28.2499 56.1619 EX 30 5 205
1965041S10076 1965 16 SI MM KATHLEEN 1965-02-18 12:00:00 ET -28.5000 56.2000 reunion main 795 795 _____O______O_ -1 -28.5000 56.2000 99 9.90000 7 -28.5000 56.2000 EX 30 7 0
1965041S10076 1965 16 SI MM KATHLEEN 1965-02-18 15:00:00 ET -28.9850 56.1502 main 851 850 _____P______P_ -1 -28.9850 56.1502 99 7 -28.9850 56.1502 EX 30 10 185
1965041S10076 1965 16 SI MM KATHLEEN 1965-02-18 18:00:00 ET -29.5000 56.1000 reunion main 906 906 _____O______O_ -1 -29.5000 56.1000 99 9.90000 -29.5000 56.1000 EX 30 9 184
1965041S10076 1965 16 SI MM KATHLEEN 1965-02-18 21:00:00 ET -29.8650 56.0850 main 950 950 _____P______P_ -1 -29.8650 56.0850 99 -29.8650 56.0850 EX 30 7 0
1965041S10076 1965 16 SI MM KATHLEEN 1965-02-19 00:00:00 ET -30.2000 56.1000 reunion main 984 984 _____O______O_ -1 -30.2000 56.1000 99 9.90000 -30.2000 56.1000 EX 30 7 176
1965041S10076 1965 16 SI MM KATHLEEN 1965-02-19 03:00:00 ET -30.5925 56.1424 main 1028 1028 _____P______P_ -1 -30.5925 56.1424 99 -30.5925 56.1424 EX 30 8 174
1965041S10076 1965 16 SI MM KATHLEEN 1965-02-19 06:00:00 ET -31.0000 56.2000 reunion main 1073 1073 _____O______O_ -1 -31.0000 56.2000 5 9.90000 -31.0000 56.2000 EX 30 8 175
1965041S10076 1965 16 SI MM KATHLEEN 1965-02-19 09:00:00 ET -31.4074 56.2278 main 1118 1118 _____P______P_ -1 -31.4074 56.2278 5 -31.4074 56.2278 EX 30 8 174
1965041S10076 1965 16 SI MM KATHLEEN 1965-02-19 12:00:00 ET -31.8000 56.3000 reunion main 1163 1163 _____O______O_ -1 -31.8000 56.3000 99 9.90000 -31.8000 56.3000 EX 30 8 164
1965041S10076 1965 16 SI MM KATHLEEN 1965-02-19 15:00:00 ET -32.1576 56.4922 main 1209 1209 _____P______P_ -1 -32.1576 56.4922 99 -32.1576 56.4922 EX 30 8 154
1965041S10076 1965 16 SI MM KATHLEEN 1965-02-19 18:00:00 ET -32.5000 56.7000 reunion main 1244 1244 _____O______O_ -1 -32.5000 56.7000 99 9.90000 -32.5000 56.7000 EX 30 7 158
1965041S10076 1965 16 SI MM KATHLEEN 1965-02-19 21:00:00 ET -32.8274 56.8079 main 1278 1278 _____P______P_ -1 -32.8274 56.8079 99 -32.8274 56.8079 EX 30 7 167
1965041S10076 1965 16 SI MM KATHLEEN 1965-02-20 00:00:00 ET -33.2000 56.9000 reunion main 1317 1317 _____O______O_ -1 -33.2000 56.9000 99 9.90000 -33.2000 56.9000 EX 30 9 167
1965041S10076 1965 16 SI MM KATHLEEN 1965-02-20 03:00:00 ET -33.6701 57.0343 main 1361 1361 _____P______P_ -1 -33.6701 57.0343 99 -33.6701 57.0343 EX 30 10 166
1965041S10076 1965 16 SI MM KATHLEEN 1965-02-20 06:00:00 ET -34.2000 57.2000 reunion main 1412 _____O______O_ -1 -34.2000 57.2000 5 9.90000 -34.2000 57.2000 EX 30 11 166

About IBTrACS Database

This database is a web-friendly format of International Best Track Archive for Climate Stewardship (IBTrACS), a global best track data archive curated by NOAA dating back to 1842.

Updated: 2021-12-01